sensor_id;sensor_type;location;lat;lon;timestamp;pressure;altitude;pressure_sealevel;temperature;humidity
7824;BME280;3957;48.61947800;9.05303100;2023-05-02T00:00:54;96204.72;;;5.95;100.00
7824;BME280;3957;48.61947800;9.05303100;2023-05-02T00:01:56;96203.03;;;5.94;100.00
7824;BME280;3957;48.61947800;9.05303100;2023-05-02T00:02:59;96207.53;;;5.94;100.00
7824;BME280;3957;48.61947800;9.05303100;2023-05-02T00:04:01;96208.19;;;5.96;100.00
7824;BME280;3957;48.61947800;9.05303100;2023-05-02T00:05:04;96204.72;;;5.95;100.00
7824;BME280;3957;48.61947800;9.05303100;2023-05-02T00:06:06;96204.88;;;5.94;100.00
7824;BME280;3957;48.61947800;9.05303100;2023-05-02T00:07:07;96202.22;;;5.94;100.00
7824;BME280;3957;48.61947800;9.05303100;2023-05-02T00:08:10;96200.06;;;5.98;100.00
7824;BME280;3957;48.61947800;9.05303100;2023-05-02T00:09:12;96206.50;;;5.95;100.00
7824;BME280;3957;48.61947800;9.05303100;2023-05-02T00:10:15;96203.56;;;5.98;100.00
7824;BME280;3957;48.61947800;9.05303100;2023-05-02T00:11:16;96202.38;;;6.01;100.00
7824;BME280;3957;48.61947800;9.05303100;2023-05-02T00:12:18;96199.91;;;5.99;100.00
7824;BME280;3957;48.61947800;9.05303100;2023-05-02T00:13:19;96196.56;;;5.97;100.00
7824;BME280;3957;48.61947800;9.05303100;2023-05-02T00:14:22;96195.72;;;5.96;100.00
7824;BME280;3957;48.61947800;9.05303100;2023-05-02T00:15:24;96196.91;;;5.94;100.00
7824;BME280;3957;48.61947800;9.05303100;2023-05-02T00:16:27;96194.56;;;5.91;100.00
7824;BME280;3957;48.61947800;9.05303100;2023-05-02T00:17:29;96196.59;;;5.89;100.00
7824;BME280;3957;48.61947800;9.05303100;2023-05-02T00:18:31;96194.75;;;5.89;100.00
7824;BME280;3957;48.61947800;9.05303100;2023-05-02T00:19:37;96194.94;;;5.88;100.00
7824;BME280;3957;48.61947800;9.05303100;2023-05-02T00:20:39;96200.59;;;5.85;100.00
7824;BME280;3957;48.61947800;9.05303100;2023-05-02T00:21:42;96198.94;;;5.84;100.00
7824;BME280;3957;48.61947800;9.05303100;2023-05-02T00:22:43;96191.94;;;5.83;100.00
7824;BME280;3957;48.61947800;9.05303100;2023-05-02T00:23:45;96196.44;;;5.82;100.00
7824;BME280;3957;48.61947800;9.05303100;2023-05-02T00:24:47;96194.78;;;5.81;100.00
7824;BME280;3957;48.61947800;9.05303100;2023-05-02T00:25:48;96195.81;;;5.80;100.00
7824;BME280;3957;48.61947800;9.05303100;2023-05-02T00:26:50;96192.47;;;5.78;100.00
7824;BME280;3957;48.61947800;9.05303100;2023-05-02T00:27:52;96201.13;;;5.80;100.00
7824;BME280;3957;48.61947800;9.05303100;2023-05-02T00:28:53;96192.97;;;5.82;100.00
7824;BME280;3957;48.61947800;9.05303100;2023-05-02T00:29:55;96200.94;;;5.82;100.00
7824;BME280;3957;48.61947800;9.05303100;2023-05-02T00:30:56;96195.63;;;5.82;100.00
7824;BME280;3957;48.61947800;9.05303100;2023-05-02T00:31:59;96200.94;;;5.82;100.00
7824;BME280;3957;48.61947800;9.05303100;2023-05-02T00:33:01;96203.25;;;5.85;100.00
7824;BME280;3957;48.61947800;9.05303100;2023-05-02T00:34:03;96201.09;;;5.88;100.00
7824;BME280;3957;48.61947800;9.05303100;2023-05-02T00:35:06;96206.22;;;5.90;100.00
7824;BME280;3957;48.61947800;9.05303100;2023-05-02T00:36:14;96197.56;;;5.96;100.00
7824;BME280;3957;48.61947800;9.05303100;2023-05-02T00:37:17;96197.88;;;6.09;100.00
7824;BME280;3957;48.61947800;9.05303100;2023-05-02T00:38:19;96201.31;;;6.18;100.00
7824;BME280;3957;48.61947800;9.05303100;2023-05-02T00:39:20;96200.28;;;6.27;100.00
7824;BME280;3957;48.61947800;9.05303100;2023-05-02T00:40:22;96198.41;;;6.36;100.00
7824;BME280;3957;48.61947800;9.05303100;2023-05-02T00:41:24;96199.34;;;6.43;100.00
7824;BME280;3957;48.61947800;9.05303100;2023-05-02T00:42:25;96204.63;;;6.52;100.00
7824;BME280;3957;48.61947800;9.05303100;2023-05-02T00:43:29;96201.81;;;6.53;100.00
7824;BME280;3957;48.61947800;9.05303100;2023-05-02T00:44:30;96201.91;;;6.60;100.00
7824;BME280;3957;48.61947800;9.05303100;2023-05-02T00:45:33;96196.31;;;6.55;100.00
7824;BME280;3957;48.61947800;9.05303100;2023-05-02T00:46:34;96198.97;;;6.55;100.00
7824;BME280;3957;48.61947800;9.05303100;2023-05-02T00:47:36;96199.28;;;6.52;100.00
7824;BME280;3957;48.61947800;9.05303100;2023-05-02T00:48:38;96198.75;;;6.64;100.00
7824;BME280;3957;48.61947800;9.05303100;2023-05-02T00:49:40;96198.75;;;6.64;100.00
7824;BME280;3957;48.61947800;9.05303100;2023-05-02T00:50:42;96205.81;;;6.72;100.00
7824;BME280;3957;48.61947800;9.05303100;2023-05-02T00:51:44;96197.50;;;6.75;100.00
7824;BME280;3957;48.61947800;9.05303100;2023-05-02T00:52:46;96196.31;;;6.78;100.00
7824;BME280;3957;48.61947800;9.05303100;2023-05-02T00:53:47;96203.41;;;6.86;100.00
7824;BME280;3957;48.61947800;9.05303100;2023-05-02T00:54:49;96194.78;;;6.84;100.00
7824;BME280;3957;48.61947800;9.05303100;2023-05-02T00:55:51;96198.63;;;6.81;100.00
7824;BME280;3957;48.61947800;9.05303100;2023-05-02T00:56:54;96198.44;;;6.83;100.00
7824;BME280;3957;48.61947800;9.05303100;2023-05-02T00:57:56;96198.81;;;6.79;100.00
7824;BME280;3957;48.61947800;9.05303100;2023-05-02T00:58:58;96193.19;;;6.74;100.00
7824;BME280;3957;48.61947800;9.05303100;2023-05-02T01:00:02;96194.53;;;6.70;100.00
7824;BME280;3957;48.61947800;9.05303100;2023-05-02T01:02:47;96200.50;;;6.72;100.00
7824;BME280;3957;48.61947800;9.05303100;2023-05-02T01:05:10;96193.19;;;6.74;100.00
7824;BME280;3957;48.61947800;9.05303100;2023-05-02T01:10:37;96198.50;;;6.74;100.00
7824;BME280;3957;48.61947800;9.05303100;2023-05-02T01:12:00;96198.03;;;6.71;100.00
7824;BME280;3957;48.61947800;9.05303100;2023-05-02T01:13:12;96196.03;;;6.73;100.00
7824;BME280;3957;48.61947800;9.05303100;2023-05-02T01:14:14;96203.16;;;6.72;100.00
7824;BME280;3957;48.61947800;9.05303100;2023-05-02T01:15:19;96195.19;;;6.72;100.00
7824;BME280;3957;48.61947800;9.05303100;2023-05-02T01:16:23;96205.63;;;6.74;100.00
7824;BME280;3957;48.61947800;9.05303100;2023-05-02T01:17:28;96200.31;;;6.74;100.00
7824;BME280;3957;48.61947800;9.05303100;2023-05-02T01:18:34;96204.81;;;6.73;100.00
7824;BME280;3957;48.61947800;9.05303100;2023-05-02T01:19:40;96199.00;;;6.70;100.00
7824;BME280;3957;48.61947800;9.05303100;2023-05-02T01:20:43;96199.50;;;6.73;100.00
7824;BME280;3957;48.61947800;9.05303100;2023-05-02T01:21:48;96205.50;;;6.75;100.00
7824;BME280;3957;48.61947800;9.05303100;2023-05-02T01:22:51;96200.00;;;6.77;100.00
7824;BME280;3957;48.61947800;9.05303100;2023-05-02T01:24:11;96195.84;;;6.74;100.00
7824;BME280;3957;48.61947800;9.05303100;2023-05-02T01:28:57;96204.34;;;6.70;100.00
7824;BME280;3957;48.61947800;9.05303100;2023-05-02T01:30:01;96205.19;;;6.70;100.00
7824;BME280;3957;48.61947800;9.05303100;2023-05-02T01:31:04;96200.00;;;6.77;100.00
7824;BME280;3957;48.61947800;9.05303100;2023-05-02T01:32:07;96202.28;;;6.80;100.00
7824;BME280;3957;48.61947800;9.05303100;2023-05-02T01:33:14;96208.16;;;6.75;100.00
7824;BME280;3957;48.61947800;9.05303100;2023-05-02T01:34:19;96210.13;;;6.73;100.00
7824;BME280;3957;48.61947800;9.05303100;2023-05-02T01:35:21;96208.47;;;6.72;100.00
7824;BME280;3957;48.61947800;9.05303100;2023-05-02T01:36:26;96209.09;;;6.83;100.00
7824;BME280;3957;48.61947800;9.05303100;2023-05-02T01:37:31;96209.09;;;6.83;100.00
7824;BME280;3957;48.61947800;9.05303100;2023-05-02T01:38:34;96203.41;;;6.86;100.00
7824;BME280;3957;48.61947800;9.05303100;2023-05-02T01:39:38;96208.41;;;6.80;100.00
7824;BME280;3957;48.61947800;9.05303100;2023-05-02T01:40:43;96207.59;;;6.80;100.00
7824;BME280;3957;48.61947800;9.05303100;2023-05-02T01:41:49;96210.03;;;6.90;100.00
7824;BME280;3957;48.61947800;9.05303100;2023-05-02T01:42:52;96201.28;;;6.81;100.00
7824;BME280;3957;48.61947800;9.05303100;2023-05-02T01:43:58;96200.25;;;6.82;100.00
7824;BME280;3957;48.61947800;9.05303100;2023-05-02T01:45:02;96208.41;;;6.80;100.00
7824;BME280;3957;48.61947800;9.05303100;2023-05-02T01:46:08;96199.75;;;6.87;100.00
7824;BME280;3957;48.61947800;9.05303100;2023-05-02T01:47:11;96201.28;;;6.81;100.00
7824;BME280;3957;48.61947800;9.05303100;2023-05-02T01:48:15;96207.91;;;6.85;100.00
7824;BME280;3957;48.61947800;9.05303100;2023-05-02T01:49:22;96212.56;;;6.83;100.00
7824;BME280;3957;48.61947800;9.05303100;2023-05-02T01:50:25;96208.97;;;6.76;100.00
7824;BME280;3957;48.61947800;9.05303100;2023-05-02T01:51:29;96197.50;;;6.75;100.00
7824;BME280;3957;48.61947800;9.05303100;2023-05-02T01:52:33;96206.94;;;6.78;100.00
7824;BME280;3957;48.61947800;9.05303100;2023-05-02T01:53:37;96206.47;;;6.74;100.00
7824;BME280;3957;48.61947800;9.05303100;2023-05-02T01:54:39;96203.16;;;6.72;100.00
7824;BME280;3957;48.61947800;9.05303100;2023-05-02T01:55:43;96207.84;;;6.70;100.00
7824;BME280;3957;48.61947800;9.05303100;2023-05-02T01:56:47;96213.34;;;6.69;100.00
7824;BME280;3957;48.61947800;9.05303100;2023-05-02T01:57:49;96205.88;;;6.64;100.00
7824;BME280;3957;48.61947800;9.05303100;2023-05-02T01:58:54;96200.38;;;6.66;100.00
7824;BME280;3957;48.61947800;9.05303100;2023-05-02T01:59:56;96212.72;;;6.58;100.00
7824;BME280;3957;48.61947800;9.05303100;2023-05-02T02:00:59;96207.59;;;6.57;100.00
7824;BME280;3957;48.61947800;9.05303100;2023-05-02T02:02:04;96210.59;;;6.54;100.00
7824;BME280;3957;48.61947800;9.05303100;2023-05-02T02:03:08;96201.13;;;6.51;100.00
7824;BME280;3957;48.61947800;9.05303100;2023-05-02T02:04:11;96205.34;;;6.45;100.00
7824;BME280;3957;48.61947800;9.05303100;2023-05-02T02:05:14;96207.00;;;6.46;100.00
7824;BME280;3957;48.61947800;9.05303100;2023-05-02T02:06:19;96200.88;;;6.38;100.00
7824;BME280;3957;48.61947800;9.05303100;2023-05-02T02:07:21;96198.94;;;6.32;100.00
7824;BME280;3957;48.61947800;9.05303100;2023-05-02T02:08:24;96211.22;;;6.33;100.00
7824;BME280;3957;48.61947800;9.05303100;2023-05-02T02:09:26;96207.38;;;6.35;100.00
7824;BME280;3957;48.61947800;9.05303100;2023-05-02T02:10:31;96205.38;;;6.37;100.00
7824;BME280;3957;48.61947800;9.05303100;2023-05-02T02:11:56;96206.53;;;6.35;100.00
7824;BME280;3957;48.61947800;9.05303100;2023-05-02T02:13:06;96205.06;;;6.32;100.00
7824;BME280;3957;48.61947800;9.05303100;2023-05-02T02:14:21;96206.91;;;6.32;100.00
7824;BME280;3957;48.61947800;9.05303100;2023-05-02T02:15:33;96209.56;;;6.32;100.00
7824;BME280;3957;48.61947800;9.05303100;2023-05-02T02:16:37;96209.69;;;6.38;100.00
7824;BME280;3957;48.61947800;9.05303100;2023-05-02T02:17:46;96211.88;;;6.35;100.00
7824;BME280;3957;48.61947800;9.05303100;2023-05-02T02:18:49;96217.88;;;6.28;100.00
7824;BME280;3957;48.61947800;9.05303100;2023-05-02T02:19:52;96219.34;;;6.31;100.00
7824;BME280;3957;48.61947800;9.05303100;2023-05-02T02:20:57;96215.38;;;6.27;100.00
7824;BME280;3957;48.61947800;9.05303100;2023-05-02T02:21:59;96222.34;;;6.28;100.00
7824;BME280;3957;48.61947800;9.05303100;2023-05-02T02:23:05;96221.50;;;6.36;100.00
7824;BME280;3957;48.61947800;9.05303100;2023-05-02T02:24:07;96223.94;;;6.45;100.00
7824;BME280;3957;48.61947800;9.05303100;2023-05-02T02:25:11;96219.06;;;6.57;100.00
7824;BME280;3957;48.61947800;9.05303100;2023-05-02T02:26:16;96226.91;;;6.51;100.00
7824;BME280;3957;48.61947800;9.05303100;2023-05-02T02:27:20;96222.09;;;6.46;100.00
7824;BME280;3957;48.61947800;9.05303100;2023-05-02T02:28:21;96231.25;;;6.43;100.00
7824;BME280;3957;48.61947800;9.05303100;2023-05-02T02:29:23;96231.78;;;6.39;100.00
7824;BME280;3957;48.61947800;9.05303100;2023-05-02T02:30:25;96227.97;;;6.33;100.00
7824;BME280;3957;48.61947800;9.05303100;2023-05-02T02:31:34;96227.31;;;6.31;100.00
7824;BME280;3957;48.61947800;9.05303100;2023-05-02T02:32:36;96222.19;;;6.29;100.00
7824;BME280;3957;48.61947800;9.05303100;2023-05-02T02:33:38;96236.13;;;6.32;100.00
7824;BME280;3957;48.61947800;9.05303100;2023-05-02T02:34:40;96226.19;;;6.25;100.00
7824;BME280;3957;48.61947800;9.05303100;2023-05-02T02:35:47;96230.69;;;6.25;100.00
7824;BME280;3957;48.61947800;9.05303100;2023-05-02T02:37:04;96229.81;;;6.33;100.00
7824;BME280;3957;48.61947800;9.05303100;2023-05-02T02:40:08;96234.78;;;6.36;100.00
7824;BME280;3957;48.61947800;9.05303100;2023-05-02T02:41:22;96235.13;;;6.33;100.00
7824;BME280;3957;48.61947800;9.05303100;2023-05-02T02:42:32;96238.78;;;6.32;100.00
7824;BME280;3957;48.61947800;9.05303100;2023-05-02T02:43:44;96233.66;;;6.30;100.00
7824;BME280;3957;48.61947800;9.05303100;2023-05-02T02:44:57;96245.91;;;6.31;100.00
7824;BME280;3957;48.61947800;9.05303100;2023-05-02T02:47:19;96242.97;;;6.26;100.00
7824;BME280;3957;48.61947800;9.05303100;2023-05-02T02:48:31;96241.16;;;6.18;100.00
7824;BME280;3957;48.61947800;9.05303100;2023-05-02T02:51:10;96242.72;;;6.04;100.00
7824;BME280;3957;48.61947800;9.05303100;2023-05-02T02:52:27;96245.72;;;6.01;100.00
7824;BME280;3957;48.61947800;9.05303100;2023-05-02T02:55:12;96246.88;;;5.90;100.00
7824;BME280;3957;48.61947800;9.05303100;2023-05-02T02:56:23;96244.06;;;5.84;100.00
7824;BME280;3957;48.61947800;9.05303100;2023-05-02T02:57:40;96256.19;;;5.86;100.00
7824;BME280;3957;48.61947800;9.05303100;2023-05-02T03:00:20;96259.50;;;5.88;100.00
7824;BME280;3957;48.61947800;9.05303100;2023-05-02T03:01:23;96256.19;;;5.86;100.00
7824;BME280;3957;48.61947800;9.05303100;2023-05-02T03:02:30;96256.84;;;5.88;100.00
7824;BME280;3957;48.61947800;9.05303100;2023-05-02T03:03:33;96265.66;;;5.89;100.00
7824;BME280;3957;48.61947800;9.05303100;2023-05-02T03:04:37;96263.81;;;5.81;100.00
7824;BME280;3957;48.61947800;9.05303100;2023-05-02T03:05:41;96263.66;;;5.74;100.00
7824;BME280;3957;48.61947800;9.05303100;2023-05-02T03:06:43;96266.66;;;5.71;100.00
7824;BME280;3957;48.61947800;9.05303100;2023-05-02T03:07:45;96266.34;;;5.66;100.00
7824;BME280;3957;48.61947800;9.05303100;2023-05-02T03:08:47;96266.22;;;5.59;100.00
7824;BME280;3957;48.61947800;9.05303100;2023-05-02T03:09:52;96268.53;;;5.54;100.00
7824;BME280;3957;48.61947800;9.05303100;2023-05-02T03:10:56;96273.84;;;5.46;100.00
7824;BME280;3957;48.61947800;9.05303100;2023-05-02T03:11:58;96266.41;;;5.41;100.00
7824;BME280;3957;48.61947800;9.05303100;2023-05-02T03:13:00;96273.69;;;5.39;100.00
7824;BME280;3957;48.61947800;9.05303100;2023-05-02T03:14:01;96270.03;;;5.32;100.00
7824;BME280;3957;48.61947800;9.05303100;2023-05-02T03:16:32;96278.66;;;5.26;100.00
7824;BME280;3957;48.61947800;9.05303100;2023-05-02T03:17:35;96281.81;;;5.30;100.00
7824;BME280;3957;48.61947800;9.05303100;2023-05-02T03:18:37;96288.44;;;5.25;100.00
7824;BME280;3957;48.61947800;9.05303100;2023-05-02T03:19:38;96284.81;;;5.26;100.00
7824;BME280;3957;48.61947800;9.05303100;2023-05-02T03:20:40;96285.13;;;5.23;100.00
7824;BME280;3957;48.61947800;9.05303100;2023-05-02T03:21:42;96284.97;;;5.25;100.00
7824;BME280;3957;48.61947800;9.05303100;2023-05-02T03:22:49;96287.63;;;5.25;100.00
7824;BME280;3957;48.61947800;9.05303100;2023-05-02T03:23:51;96291.44;;;5.31;100.00
7824;BME280;3957;48.61947800;9.05303100;2023-05-02T03:24:53;96293.75;;;5.34;100.00
7824;BME280;3957;48.61947800;9.05303100;2023-05-02T03:25:55;96298.38;;;5.40;100.00
7824;BME280;3957;48.61947800;9.05303100;2023-05-02T03:26:58;96290.09;;;5.43;100.00
7824;BME280;3957;48.61947800;9.05303100;2023-05-02T03:28:06;96294.09;;;5.47;100.00
7824;BME280;3957;48.61947800;9.05303100;2023-05-02T03:29:08;96301.38;;;5.53;100.00
7824;BME280;3957;48.61947800;9.05303100;2023-05-02T03:30:13;96304.38;;;5.58;100.00
7824;BME280;3957;48.61947800;9.05303100;2023-05-02T03:31:15;96298.72;;;5.53;100.00
7824;BME280;3957;48.61947800;9.05303100;2023-05-02T03:32:17;96296.56;;;5.57;100.00
7824;BME280;3957;48.61947800;9.05303100;2023-05-02T03:33:19;96300.72;;;5.59;100.00
7824;BME280;3957;48.61947800;9.05303100;2023-05-02T03:34:21;96307.66;;;5.60;100.00
7824;BME280;3957;48.61947800;9.05303100;2023-05-02T03:35:24;96299.53;;;5.62;100.00
7824;BME280;3957;48.61947800;9.05303100;2023-05-02T03:36:27;96300.38;;;5.54;100.00
7824;BME280;3957;48.61947800;9.05303100;2023-05-02T03:37:29;96303.84;;;5.55;100.00
7824;BME280;3957;48.61947800;9.05303100;2023-05-02T03:38:33;96303.84;;;5.55;100.00
7824;BME280;3957;48.61947800;9.05303100;2023-05-02T03:39:39;96314.16;;;5.58;100.00
7824;BME280;3957;48.61947800;9.05303100;2023-05-02T03:40:40;96306.03;;;5.59;100.00
7824;BME280;3957;48.61947800;9.05303100;2023-05-02T03:41:44;96307.00;;;5.67;100.00
7824;BME280;3957;48.61947800;9.05303100;2023-05-02T03:42:50;96308.00;;;5.66;100.00
7824;BME280;3957;48.61947800;9.05303100;2023-05-02T03:43:58;96313.81;;;5.69;100.00
7824;BME280;3957;48.61947800;9.05303100;2023-05-02T03:45:01;96320.75;;;5.70;100.00
7824;BME280;3957;48.61947800;9.05303100;2023-05-02T03:46:05;96318.09;;;5.70;100.00
7824;BME280;3957;48.61947800;9.05303100;2023-05-02T03:47:10;96321.44;;;5.72;100.00
7824;BME280;3957;48.61947800;9.05303100;2023-05-02T03:48:15;96328.25;;;5.75;100.00
7824;BME280;3957;48.61947800;9.05303100;2023-05-02T03:49:17;96329.56;;;5.79;100.00
7824;BME280;3957;48.61947800;9.05303100;2023-05-02T03:50:22;96332.69;;;5.83;100.00
7824;BME280;3957;48.61947800;9.05303100;2023-05-02T03:51:25;96337.88;;;5.84;100.00
7824;BME280;3957;48.61947800;9.05303100;2023-05-02T03:52:29;96332.22;;;5.87;100.00
7824;BME280;3957;48.61947800;9.05303100;2023-05-02T03:53:32;96327.38;;;5.91;100.00
7824;BME280;3957;48.61947800;9.05303100;2023-05-02T03:54:33;96334.19;;;5.93;100.00
7824;BME280;3957;48.61947800;9.05303100;2023-05-02T03:55:42;96329.38;;;5.97;100.00
7824;BME280;3957;48.61947800;9.05303100;2023-05-02T03:56:52;96332.38;;;6.02;100.00
7824;BME280;3957;48.61947800;9.05303100;2023-05-02T03:58:01;96339.16;;;6.05;100.00
7824;BME280;3957;48.61947800;9.05303100;2023-05-02T03:59:02;96345.81;;;6.09;100.00
7824;BME280;3957;48.61947800;9.05303100;2023-05-02T04:00:05;96341.00;;;6.12;100.00
7824;BME280;3957;48.61947800;9.05303100;2023-05-02T04:01:14;96342.47;;;6.15;100.00
7824;BME280;3957;48.61947800;9.05303100;2023-05-02T04:02:19;96345.97;;;6.16;100.00
7824;BME280;3957;48.61947800;9.05303100;2023-05-02T04:03:23;96340.97;;;6.21;100.00
7824;BME280;3957;48.61947800;9.05303100;2023-05-02T04:04:25;96346.78;;;6.24;100.00
7824;BME280;3957;48.61947800;9.05303100;2023-05-02T04:05:28;96351.75;;;6.27;100.00
7824;BME280;3957;48.61947800;9.05303100;2023-05-02T04:06:29;96351.59;;;6.29;100.00
7824;BME280;3957;48.61947800;9.05303100;2023-05-02T04:07:36;96349.75;;;6.29;100.00
7824;BME280;3957;48.61947800;9.05303100;2023-05-02T04:08:39;96360.19;;;6.31;100.00
7824;BME280;3957;48.61947800;9.05303100;2023-05-02T04:09:41;96357.22;;;6.34;100.00
7824;BME280;3957;48.61947800;9.05303100;2023-05-02T04:10:45;96356.69;;;6.39;100.00
7824;BME280;3957;48.61947800;9.05303100;2023-05-02T04:11:48;96350.38;;;6.40;100.00
7824;BME280;3957;48.61947800;9.05303100;2023-05-02T04:12:49;96351.22;;;6.40;100.00
7824;BME280;3957;48.61947800;9.05303100;2023-05-02T04:13:52;96353.69;;;6.42;100.00
7824;BME280;3957;48.61947800;9.05303100;2023-05-02T04:14:54;96355.34;;;6.43;100.00
7824;BME280;3957;48.61947800;9.05303100;2023-05-02T04:15:59;96355.00;;;6.46;100.00
7824;BME280;3957;48.61947800;9.05303100;2023-05-02T04:17:04;96355.00;;;6.46;100.00
7824;BME280;3957;48.61947800;9.05303100;2023-05-02T04:18:12;96364.66;;;6.47;100.00
7824;BME280;3957;48.61947800;9.05303100;2023-05-02T04:19:15;96361.63;;;6.50;100.00
7824;BME280;3957;48.61947800;9.05303100;2023-05-02T04:20:16;96369.97;;;6.47;100.00
7824;BME280;3957;48.61947800;9.05303100;2023-05-02T04:21:22;96362.97;;;6.46;100.00
7824;BME280;3957;48.61947800;9.05303100;2023-05-02T04:22:24;96361.00;;;6.48;100.00
7824;BME280;3957;48.61947800;9.05303100;2023-05-02T04:23:30;96367.97;;;6.49;100.00
7824;BME280;3957;48.61947800;9.05303100;2023-05-02T04:24:34;96368.97;;;6.48;100.00
7824;BME280;3957;48.61947800;9.05303100;2023-05-02T04:25:35;96367.47;;;6.54;100.00
7824;BME280;3957;48.61947800;9.05303100;2023-05-02T04:26:37;96371.09;;;6.53;100.00
7824;BME280;3957;48.61947800;9.05303100;2023-05-02T04:27:43;96362.81;;;6.47;100.00
7824;BME280;3957;48.61947800;9.05303100;2023-05-02T04:28:48;96368.81;;;6.50;100.00
7824;BME280;3957;48.61947800;9.05303100;2023-05-02T04:29:51;96373.13;;;6.51;100.00
7824;BME280;3957;48.61947800;9.05303100;2023-05-02T04:30:54;96372.63;;;6.47;100.00
7824;BME280;3957;48.61947800;9.05303100;2023-05-02T04:31:58;96373.75;;;6.53;100.00
7824;BME280;3957;48.61947800;9.05303100;2023-05-02T04:33:01;96375.44;;;6.54;100.00
7824;BME280;3957;48.61947800;9.05303100;2023-05-02T04:34:07;96375.59;;;6.52;100.00
7824;BME280;3957;48.61947800;9.05303100;2023-05-02T04:35:14;96378.25;;;6.52;100.00
7824;BME280;3957;48.61947800;9.05303100;2023-05-02T04:36:16;96377.28;;;6.45;100.00
7824;BME280;3957;48.61947800;9.05303100;2023-05-02T04:37:20;96371.28;;;6.51;100.00
7824;BME280;3957;48.61947800;9.05303100;2023-05-02T04:38:22;96374.63;;;6.53;100.00
7824;BME280;3957;48.61947800;9.05303100;2023-05-02T04:39:24;96377.09;;;6.55;100.00
7824;BME280;3957;48.61947800;9.05303100;2023-05-02T04:40:43;96375.09;;;6.49;100.00
7824;BME280;3957;48.61947800;9.05303100;2023-05-02T04:41:47;96379.09;;;6.53;100.00
7824;BME280;3957;48.61947800;9.05303100;2023-05-02T04:42:49;96386.88;;;6.54;100.00
7824;BME280;3957;48.61947800;9.05303100;2023-05-02T04:43:54;96379.94;;;6.53;100.00
7824;BME280;3957;48.61947800;9.05303100;2023-05-02T04:44:56;96382.72;;;6.52;100.00
7824;BME280;3957;48.61947800;9.05303100;2023-05-02T04:45:57;96385.06;;;6.55;100.00
7824;BME280;3957;48.61947800;9.05303100;2023-05-02T04:47:03;96387.41;;;6.50;100.00
7824;BME280;3957;48.61947800;9.05303100;2023-05-02T04:48:05;96390.72;;;6.43;100.00
7824;BME280;3957;48.61947800;9.05303100;2023-05-02T04:49:06;96384.06;;;6.47;100.00
7824;BME280;3957;48.61947800;9.05303100;2023-05-02T04:50:09;96391.72;;;6.51;100.00
7824;BME280;3957;48.61947800;9.05303100;2023-05-02T04:51:10;96385.59;;;6.42;100.00
7824;BME280;3957;48.61947800;9.05303100;2023-05-02T04:52:13;96381.41;;;6.47;100.00
7824;BME280;3957;48.61947800;9.05303100;2023-05-02T04:53:15;96390.72;;;6.52;100.00
7824;BME280;3957;48.61947800;9.05303100;2023-05-02T04:54:17;96390.56;;;6.53;100.00
7824;BME280;3957;48.61947800;9.05303100;2023-05-02T04:55:18;96387.91;;;6.53;100.00
7824;BME280;3957;48.61947800;9.05303100;2023-05-02T04:56:20;96383.41;;;6.54;100.00
7824;BME280;3957;48.61947800;9.05303100;2023-05-02T04:57:22;96389.88;;;6.59;100.00
7824;BME280;3957;48.61947800;9.05303100;2023-05-02T04:58:28;96390.03;;;6.66;100.00
7824;BME280;3957;48.61947800;9.05303100;2023-05-02T04:59:34;96392.81;;;6.73;100.00
7824;BME280;3957;48.61947800;9.05303100;2023-05-02T05:00:36;96393.13;;;6.78;100.00
7824;BME280;3957;48.61947800;9.05303100;2023-05-02T05:01:38;96390.78;;;6.83;100.00
7824;BME280;3957;48.61947800;9.05303100;2023-05-02T05:02:41;96395.75;;;6.86;100.00
7824;BME280;3957;48.61947800;9.05303100;2023-05-02T05:03:46;96395.25;;;6.91;100.00
7824;BME280;3957;48.61947800;9.05303100;2023-05-02T05:04:50;96390.06;;;6.97;100.00
7824;BME280;3957;48.61947800;9.05303100;2023-05-02T05:05:53;96391.59;;;6.92;100.00
7824;BME280;3957;48.61947800;9.05303100;2023-05-02T05:06:56;96395.78;;;6.78;100.00
7824;BME280;3957;48.61947800;9.05303100;2023-05-02T05:08:00;96396.31;;;6.65;100.00
7824;BME280;3957;48.61947800;9.05303100;2023-05-02T05:09:05;96392.03;;;6.56;100.00
7824;BME280;3957;48.61947800;9.05303100;2023-05-02T05:10:09;96397.47;;;6.71;100.00
7824;BME280;3957;48.61947800;9.05303100;2023-05-02T05:11:18;96398.84;;;6.58;100.00
7824;BME280;3957;48.61947800;9.05303100;2023-05-02T05:12:20;96395.22;;;6.51;100.00
7824;BME280;3957;48.61947800;9.05303100;2023-05-02T05:13:22;96393.84;;;6.63;100.00
7824;BME280;3957;48.61947800;9.05303100;2023-05-02T05:14:24;96395.28;;;6.83;100.00
7824;BME280;3957;48.61947800;9.05303100;2023-05-02T05:15:28;96398.72;;;6.91;100.00
7824;BME280;3957;48.61947800;9.05303100;2023-05-02T05:16:32;96394.34;;;6.98;100.00
7824;BME280;3957;48.61947800;9.05303100;2023-05-02T05:17:34;96398.00;;;7.06;100.00
7824;BME280;3957;48.61947800;9.05303100;2023-05-02T05:18:37;96403.72;;;7.26;100.00
7824;BME280;3957;48.61947800;9.05303100;2023-05-02T05:19:44;96401.84;;;7.26;100.00
7824;BME280;3957;48.61947800;9.05303100;2023-05-02T05:20:46;96401.75;;;7.20;100.00
7824;BME280;3957;48.61947800;9.05303100;2023-05-02T05:21:47;96398.25;;;7.19;100.00
7824;BME280;3957;48.61947800;9.05303100;2023-05-02T05:22:51;96403.53;;;7.27;100.00
7824;BME280;3957;48.61947800;9.05303100;2023-05-02T05:23:54;96401.44;;;7.14;100.00
7824;BME280;3957;48.61947800;9.05303100;2023-05-02T05:24:59;96401.16;;;7.01;100.00
7824;BME280;3957;48.61947800;9.05303100;2023-05-02T05:26:11;96405.28;;;7.12;100.00
7824;BME280;3957;48.61947800;9.05303100;2023-05-02T05:27:15;96407.91;;;7.20;100.00